createdAt,value
2023-03-15T00:01:18.672Z,45.97
2023-03-15T00:03:48.279Z,45.53
2023-03-15T00:06:17.412Z,35.00
2023-03-15T00:08:45.784Z,26.83
2023-03-15T00:11:17.857Z,37.03
2023-03-15T00:16:14.602Z,49.25
2023-03-15T00:18:42.927Z,40.75
2023-03-15T00:21:11.196Z,34.13
2023-03-15T00:23:39.516Z,43.13
2023-03-15T00:26:07.891Z,33.20
2023-03-15T00:28:36.128Z,42.50
2023-03-15T00:31:17.339Z,41.50
2023-03-15T00:33:46.203Z,45.67
2023-03-15T00:36:16.835Z,51.63
2023-03-15T00:38:45.210Z,43.45
2023-03-15T00:41:16.913Z,37.97
2023-03-15T00:43:47.303Z,37.85
2023-03-15T00:46:17.359Z,46.13
2023-03-15T00:48:49.627Z,36.50
2023-03-15T00:51:21.328Z,38.30
2023-03-15T00:53:51.550Z,36.45
2023-03-15T00:56:22.880Z,42.60
2023-03-15T00:58:52.432Z,30.48
2023-03-15T01:01:24.425Z,35.08
2023-03-15T01:06:25.952Z,32.85
2023-03-15T01:08:54.539Z,39.97
2023-03-15T01:11:26.573Z,40.92
2023-03-15T01:13:57.267Z,39.38
2023-03-15T01:16:25.993Z,51.17
2023-03-15T01:18:54.687Z,40.25
2023-03-15T01:21:24.671Z,58.25
2023-03-15T01:23:54.234Z,43.28
2023-03-15T01:26:25.450Z,44.28
2023-03-15T01:28:53.904Z,31.02
2023-03-15T01:31:30.856Z,24.92
2023-03-15T01:33:59.827Z,52.67
2023-03-15T01:36:32.114Z,40.10
2023-03-15T01:39:00.533Z,24.10
2023-03-15T01:41:38.998Z,32.58
2023-03-15T01:44:14.525Z,26.25
2023-03-15T01:46:44.105Z,25.08
2023-03-15T01:49:35.378Z,30.67
2023-03-15T01:52:10.720Z,23.55
2023-03-15T01:54:52.252Z,22.25
2023-03-15T01:57:32.012Z,23.25
2023-03-15T02:00:19.035Z,22.05
2023-03-15T02:03:20.797Z,36.20
2023-03-15T02:05:59.456Z,28.67
2023-03-15T02:08:44.716Z,31.42
2023-03-15T02:11:14.145Z,42.75
2023-03-15T02:13:44.486Z,38.35
2023-03-15T02:16:13.097Z,51.05
2023-03-15T02:18:47.484Z,41.83
2023-03-15T02:21:28.771Z,37.35
2023-03-15T02:24:31.689Z,37.35
2023-03-15T02:27:00.002Z,47.38
2023-03-15T02:29:30.529Z,30.10
2023-03-15T02:31:59.279Z,20.17
2023-03-15T02:34:27.435Z,22.05
2023-03-15T02:36:55.866Z,37.78
2023-03-15T02:39:24.497Z,22.42
2023-03-15T02:41:58.856Z,26.38
2023-03-15T02:44:38.442Z,23.83
2023-03-15T02:47:23.157Z,12.85
2023-03-15T02:49:53.632Z,15.90
2023-03-15T02:52:23.015Z,31.52
2023-03-15T02:54:51.191Z,13.95
2023-03-15T02:57:20.405Z,14.88
2023-03-15T02:59:49.018Z,17.35
2023-03-15T03:02:17.511Z,12.13
2023-03-15T03:04:45.813Z,16.85
2023-03-15T03:07:14.184Z,13.40
2023-03-15T03:09:49.629Z,19.27
2023-03-15T03:12:19.952Z,17.10
2023-03-15T03:14:49.107Z,16.15
2023-03-15T03:17:20.116Z,17.23
2023-03-15T03:19:48.427Z,19.38
2023-03-15T03:22:19.779Z,15.73
2023-03-15T03:24:47.990Z,18.52
2023-03-15T03:27:18.066Z,14.90
2023-03-15T03:29:48.136Z,18.23
2023-03-15T03:32:17.516Z,21.58
2023-03-15T03:34:46.307Z,26.27
2023-03-15T03:37:18.670Z,29.73
2023-03-15T03:40:06.435Z,16.38
2023-03-15T03:42:35.701Z,21.40
2023-03-15T03:45:05.461Z,20.67
2023-03-15T03:47:38.447Z,24.45
2023-03-15T03:50:07.609Z,20.65
2023-03-15T03:52:35.725Z,20.60
2023-03-15T03:55:12.057Z,21.40
2023-03-15T03:57:41.463Z,16.48
2023-03-15T04:00:14.557Z,22.15
2023-03-15T04:02:43.054Z,22.33
2023-03-15T04:05:13.636Z,26.00
2023-03-15T04:07:42.824Z,22.10
2023-03-15T04:10:13.353Z,22.67
2023-03-15T04:12:44.930Z,25.88
2023-03-15T04:15:14.784Z,21.92
2023-03-15T04:17:43.388Z,25.08
2023-03-15T04:20:12.212Z,33.15
2023-03-15T04:22:44.287Z,24.70
2023-03-15T04:25:35.515Z,22.15
2023-03-15T04:28:14.940Z,24.45
2023-03-15T04:30:51.227Z,20.50
2023-03-15T04:33:48.530Z,26.15
2023-03-15T04:36:40.051Z,26.63
2023-03-15T04:39:11.129Z,26.98
2023-03-15T04:42:05.324Z,27.90
2023-03-15T04:44:53.304Z,24.48
2023-03-15T04:47:44.412Z,25.23
2023-03-15T04:50:31.621Z,25.42
2023-03-15T04:53:22.861Z,21.65
2023-03-15T04:56:04.250Z,21.10
2023-03-15T04:58:43.551Z,22.95
2023-03-15T05:01:34.842Z,23.27
2023-03-15T05:04:16.453Z,22.77
2023-03-15T05:06:54.418Z,29.83
2023-03-15T05:09:40.546Z,23.98
2023-03-15T05:12:30.361Z,27.73
2023-03-15T05:15:24.435Z,26.90
2023-03-15T05:18:02.400Z,31.15
2023-03-15T05:20:36.310Z,23.00
2023-03-15T05:23:13.235Z,30.02
2023-03-15T05:26:04.198Z,37.00
2023-03-15T05:28:50.809Z,43.03
2023-03-15T05:31:21.636Z,32.63
2023-03-15T05:34:05.039Z,29.83
2023-03-15T05:37:00.477Z,35.67
2023-03-15T05:39:47.156Z,29.42
2023-03-15T05:42:33.557Z,42.78
2023-03-15T05:45:29.580Z,32.10
2023-03-15T05:48:16.732Z,43.78
2023-03-15T05:50:58.434Z,42.38
2023-03-15T05:53:46.368Z,36.55
2023-03-15T05:56:40.586Z,33.50
2023-03-15T05:59:35.186Z,29.42
2023-03-15T06:02:19.802Z,31.40
2023-03-15T06:05:03.122Z,40.60
2023-03-15T06:07:32.035Z,32.97
2023-03-15T06:10:00.434Z,41.75
2023-03-15T06:12:28.853Z,37.60
2023-03-15T06:14:57.244Z,45.10
2023-03-15T06:17:25.628Z,40.28
2023-03-15T06:19:54.447Z,71.93
2023-03-15T06:22:22.822Z,74.00
2023-03-15T06:24:57.471Z,43.30
2023-03-15T06:27:25.915Z,37.92
2023-03-15T06:29:56.584Z,44.60
2023-03-15T06:32:25.201Z,41.58
2023-03-15T06:34:53.629Z,41.67
2023-03-15T06:37:34.214Z,46.92
2023-03-15T06:40:07.893Z,36.43
2023-03-15T06:42:37.370Z,56.03
2023-03-15T06:45:07.191Z,37.38
2023-03-15T06:47:36.193Z,42.83
2023-03-15T06:50:06.303Z,47.65
2023-03-15T06:52:34.891Z,66.30
2023-03-15T06:55:03.026Z,57.38
2023-03-15T06:57:31.386Z,47.90
2023-03-15T06:59:59.623Z,64.63
2023-03-15T07:02:27.871Z,53.45
2023-03-15T07:04:56.207Z,62.70
2023-03-15T07:07:24.311Z,58.60
2023-03-15T07:09:54.299Z,62.38
2023-03-15T07:12:23.593Z,56.17
2023-03-15T07:14:51.827Z,56.53
2023-03-15T07:17:20.217Z,66.88
2023-03-15T07:19:56.330Z,53.67
2023-03-15T07:22:25.441Z,48.15
2023-03-15T07:24:53.791Z,54.28
2023-03-15T07:27:22.046Z,54.15
2023-03-15T07:29:50.172Z,62.25
2023-03-15T07:32:18.881Z,43.80
2023-03-15T07:34:47.214Z,48.95
2023-03-15T07:37:15.636Z,40.85
2023-03-15T07:39:44.072Z,42.88
2023-03-15T07:42:12.448Z,47.55
2023-03-15T07:44:42.899Z,55.80
2023-03-15T07:47:11.488Z,52.72
2023-03-15T07:49:39.722Z,45.03
2023-03-15T07:52:08.445Z,47.60
2023-03-15T07:54:36.710Z,50.85
2023-03-15T07:57:05.363Z,42.50
2023-03-15T07:59:33.576Z,44.83
2023-03-15T08:02:03.191Z,45.78
2023-03-15T08:04:31.761Z,43.35
2023-03-15T08:07:00.101Z,42.65
2023-03-15T08:09:28.349Z,39.10
2023-03-15T08:11:56.677Z,38.92
2023-03-15T08:14:25.776Z,49.10
2023-03-15T08:16:54.316Z,38.38
2023-03-15T08:19:22.557Z,39.15
2023-03-15T08:21:50.880Z,34.00
2023-03-15T08:24:19.082Z,28.77
2023-03-15T08:26:47.497Z,29.88
2023-03-15T08:29:16.253Z,31.67
2023-03-15T08:31:44.397Z,28.77
2023-03-15T08:34:12.761Z,26.88
2023-03-15T08:36:41.201Z,32.45
2023-03-15T08:39:09.594Z,42.55
2023-03-15T08:41:37.984Z,37.75
2023-03-15T08:44:06.288Z,50.72
2023-03-15T08:46:34.946Z,42.70
2023-03-15T08:49:03.837Z,45.80
2023-03-15T08:51:32.336Z,59.33
2023-03-15T08:54:00.509Z,48.20
2023-03-15T08:56:28.890Z,36.22
2023-03-15T08:58:57.268Z,53.13
2023-03-15T09:01:25.411Z,46.05
2023-03-15T09:03:53.741Z,47.35
2023-03-15T09:06:21.998Z,42.22
2023-03-15T09:08:50.289Z,42.97
2023-03-15T09:11:18.455Z,49.40
2023-03-15T09:13:46.857Z,41.47
2023-03-15T09:16:15.527Z,43.40
2023-03-15T09:18:43.733Z,41.53
2023-03-15T09:21:12.361Z,40.67
2023-03-15T09:23:40.552Z,36.30
2023-03-15T09:26:08.864Z,43.78
2023-03-15T09:28:37.156Z,38.13
2023-03-15T09:31:06.331Z,42.50
2023-03-15T09:33:34.592Z,35.75
2023-03-15T09:36:02.953Z,36.17
2023-03-15T09:38:31.362Z,29.42
2023-03-15T09:41:00.638Z,31.73
2023-03-15T09:43:59.845Z,34.78
2023-03-15T09:46:32.922Z,41.40
2023-03-15T09:49:55.003Z,46.92
2023-03-15T09:52:49.605Z,36.45
2023-03-15T09:55:38.012Z,34.20
2023-03-15T09:58:13.559Z,40.50
2023-03-15T10:00:45.969Z,38.72
2023-03-15T10:03:23.304Z,36.67
2023-03-15T10:06:01.306Z,27.88
2023-03-15T10:08:30.283Z,34.33
2023-03-15T10:11:24.089Z,49.10
2023-03-15T10:14:15.345Z,42.75
2023-03-15T10:16:49.076Z,36.97
2023-03-15T10:19:41.978Z,43.53
2023-03-15T10:22:31.244Z,37.83
2023-03-15T10:25:11.596Z,36.72
2023-03-15T10:27:59.769Z,37.60
2023-03-15T10:30:37.136Z,42.90
2023-03-15T10:33:24.029Z,31.23
2023-03-15T10:35:56.101Z,29.70
2023-03-15T10:38:28.355Z,41.97
2023-03-15T10:40:59.387Z,37.17
2023-03-15T10:43:30.424Z,41.00
2023-03-15T10:46:03.124Z,50.28
2023-03-15T10:48:37.284Z,35.20
2023-03-15T10:51:20.988Z,31.20
2023-03-15T10:54:00.733Z,34.28
2023-03-15T10:56:44.718Z,24.73
2023-03-15T10:59:21.680Z,35.13
2023-03-15T11:01:54.062Z,30.95
2023-03-15T11:04:28.406Z,27.33
2023-03-15T11:06:59.679Z,29.27
2023-03-15T11:09:37.891Z,33.60
2023-03-15T11:12:09.271Z,29.58
2023-03-15T11:14:49.446Z,37.22
2023-03-15T11:17:24.835Z,39.03
2023-03-15T11:19:57.723Z,34.03
2023-03-15T11:22:26.991Z,38.50
2023-03-15T11:24:55.316Z,25.70
2023-03-15T11:27:25.261Z,29.15
2023-03-15T11:29:59.907Z,29.60
2023-03-15T11:32:32.118Z,27.45
2023-03-15T11:35:13.831Z,32.72
2023-03-15T11:38:12.877Z,31.13
2023-03-15T11:40:51.481Z,31.13
2023-03-15T11:43:42.840Z,27.63
2023-03-15T11:46:34.620Z,29.25
2023-03-15T11:49:30.344Z,25.60
2023-03-15T11:51:59.005Z,34.17
2023-03-15T11:54:30.791Z,26.90
2023-03-15T11:57:08.258Z,28.58
2023-03-15T11:59:39.199Z,29.25
2023-03-15T12:02:13.384Z,30.65
2023-03-15T12:04:47.185Z,25.95
2023-03-15T12:07:21.385Z,22.08
2023-03-15T12:09:54.929Z,21.60
2023-03-15T12:12:26.461Z,17.30
2023-03-15T12:15:16.208Z,24.10
2023-03-15T12:17:54.789Z,26.58
2023-03-15T12:20:46.894Z,25.63
2023-03-15T12:23:21.819Z,28.10
2023-03-15T12:26:00.212Z,24.02
2023-03-15T12:28:32.172Z,27.27
2023-03-15T12:33:32.843Z,25.27
2023-03-15T12:36:27.424Z,24.60
2023-03-15T12:39:24.021Z,19.35
2023-03-15T12:41:53.176Z,29.80
2023-03-15T12:44:38.560Z,23.08
2023-03-15T12:47:11.806Z,20.02
2023-03-15T12:49:41.940Z,26.73
2023-03-15T12:52:13.113Z,34.05
2023-03-15T12:55:11.459Z,35.77
2023-03-15T12:57:52.730Z,32.28
2023-03-15T13:00:26.958Z,26.63
2023-03-15T13:03:06.044Z,31.67
2023-03-15T13:05:35.311Z,36.08
2023-03-15T13:08:22.164Z,38.45
2023-03-15T13:11:23.041Z,39.70
2023-03-15T13:14:26.960Z,31.85
2023-03-15T13:17:07.064Z,31.10
2023-03-15T13:19:43.444Z,30.92
2023-03-15T13:23:04.094Z,32.00
2023-03-15T13:26:04.640Z,35.58
2023-03-15T13:28:38.736Z,30.50
2023-03-15T13:31:24.332Z,31.23
2023-03-15T13:34:10.925Z,34.65
2023-03-15T13:36:48.024Z,36.15
2023-03-15T13:39:23.216Z,30.83
2023-03-15T13:41:58.822Z,26.88
2023-03-15T13:44:28.459Z,36.00
2023-03-15T13:46:57.797Z,29.80
2023-03-15T13:49:31.171Z,32.35
2023-03-15T13:52:01.392Z,28.50
2023-03-15T13:54:34.508Z,29.40
2023-03-15T13:57:23.980Z,27.08
2023-03-15T13:59:57.702Z,25.60
2023-03-15T14:02:46.389Z,21.38
2023-03-15T14:05:18.258Z,27.67
2023-03-15T14:10:36.632Z,26.45
2023-03-15T14:13:29.367Z,28.92
2023-03-15T14:15:59.145Z,20.23
2023-03-15T14:18:32.467Z,28.35
2023-03-15T14:21:16.392Z,27.20
2023-03-15T14:23:47.643Z,23.33
2023-03-15T14:26:22.278Z,25.33
2023-03-15T14:29:06.521Z,23.83
2023-03-15T14:31:51.172Z,19.70
2023-03-15T14:34:47.182Z,21.85
2023-03-15T14:37:43.619Z,19.92
2023-03-15T14:40:19.248Z,19.27
2023-03-15T14:42:48.757Z,23.20
2023-03-15T14:45:18.601Z,21.52
2023-03-15T14:47:57.987Z,23.33
2023-03-15T14:50:34.048Z,23.98
2023-03-15T14:53:03.626Z,22.85
2023-03-15T14:55:34.076Z,20.58
2023-03-15T14:58:12.004Z,19.13
2023-03-15T15:00:40.394Z,34.78
2023-03-15T15:03:34.244Z,24.38
2023-03-15T15:06:03.337Z,19.33
2023-03-15T15:08:33.016Z,20.85
2023-03-15T15:11:01.566Z,22.05
2023-03-15T15:13:31.343Z,23.90
2023-03-15T15:15:59.974Z,30.20
2023-03-15T15:18:30.580Z,17.50
2023-03-15T15:21:04.626Z,25.48
2023-03-15T15:23:56.977Z,25.98
2023-03-15T15:26:30.468Z,25.38
2023-03-15T15:28:59.265Z,25.55
2023-03-15T15:31:28.771Z,20.92
2023-03-15T15:33:57.432Z,31.33
2023-03-15T15:36:29.484Z,19.08
2023-03-15T15:39:00.064Z,17.83
2023-03-15T15:41:29.860Z,22.73
2023-03-15T15:44:01.635Z,21.58
2023-03-15T15:46:30.136Z,31.05
2023-03-15T15:48:58.376Z,23.63
2023-03-15T15:51:29.695Z,28.27
2023-03-15T15:54:00.761Z,32.45
2023-03-15T15:56:42.302Z,25.38
2023-03-15T15:59:13.972Z,29.63
2023-03-15T16:01:59.109Z,25.55
2023-03-15T16:04:29.210Z,27.00
2023-03-15T16:07:00.658Z,23.98
2023-03-15T16:09:31.254Z,25.70
2023-03-15T16:11:59.866Z,23.38
2023-03-15T16:14:28.256Z,26.50
2023-03-15T16:16:59.392Z,32.35
2023-03-15T16:19:27.780Z,35.60
2023-03-15T16:21:56.035Z,32.63
2023-03-15T16:24:31.454Z,31.55
2023-03-15T16:27:03.241Z,27.30
2023-03-15T16:29:41.157Z,28.92
2023-03-15T16:32:24.479Z,31.13
2023-03-15T16:35:02.565Z,38.55
2023-03-15T16:37:35.416Z,35.50
2023-03-15T16:40:03.941Z,52.53
2023-03-15T16:42:32.188Z,26.73
2023-03-15T16:45:00.488Z,31.98
2023-03-15T16:47:28.914Z,31.95
2023-03-15T16:49:57.234Z,35.28
2023-03-15T16:52:25.836Z,40.63
2023-03-15T16:54:54.179Z,37.08
2023-03-15T16:57:23.625Z,28.38
2023-03-15T16:59:52.571Z,34.03
2023-03-15T17:02:26.621Z,30.27
2023-03-15T17:04:55.352Z,36.05
2023-03-15T17:07:29.087Z,36.22
2023-03-15T17:09:57.757Z,26.35
2023-03-15T17:12:29.945Z,31.83
2023-03-15T17:15:00.052Z,28.73
2023-03-15T17:17:31.400Z,26.25
2023-03-15T17:20:00.936Z,39.70
2023-03-15T17:22:29.715Z,32.70
2023-03-15T17:24:58.012Z,27.38
2023-03-15T17:27:36.853Z,33.13
2023-03-15T17:30:26.652Z,32.80
2023-03-15T17:32:56.022Z,36.83
2023-03-15T17:35:47.894Z,25.08
2023-03-15T17:38:20.152Z,35.35
2023-03-15T17:40:49.217Z,33.15
2023-03-15T17:43:17.516Z,46.78
2023-03-15T17:45:46.216Z,34.55
2023-03-15T17:48:14.751Z,37.00
2023-03-15T17:50:44.412Z,30.00
2023-03-15T17:53:17.858Z,33.60
2023-03-15T17:55:47.253Z,36.75
2023-03-15T17:58:21.861Z,34.72
2023-03-15T18:00:54.991Z,34.60
2023-03-15T18:03:24.290Z,31.38
2023-03-15T18:05:52.559Z,30.85
2023-03-15T18:08:21.701Z,29.25
2023-03-15T18:10:52.170Z,30.27
2023-03-15T18:13:21.883Z,41.13
2023-03-15T18:15:50.803Z,60.45
2023-03-15T18:18:19.545Z,43.72
2023-03-15T18:20:47.988Z,28.83
2023-03-15T18:23:17.703Z,42.17
2023-03-15T18:25:46.099Z,30.13
2023-03-15T18:28:14.937Z,31.60
2023-03-15T18:30:43.250Z,28.65
2023-03-15T18:33:12.222Z,35.50
2023-03-15T18:35:40.720Z,42.97
2023-03-15T18:38:09.091Z,59.42
2023-03-15T18:40:37.248Z,38.25
2023-03-15T18:43:05.797Z,38.20
2023-03-15T18:45:36.198Z,26.38
2023-03-15T18:48:05.457Z,28.00
2023-03-15T18:50:34.961Z,39.95
2023-03-15T18:53:05.182Z,49.33
2023-03-15T18:55:34.833Z,57.25
2023-03-15T18:58:04.228Z,53.60
2023-03-15T19:00:33.434Z,40.65
2023-03-15T19:03:02.950Z,73.70
2023-03-15T19:05:33.970Z,61.75
2023-03-15T19:08:02.303Z,52.03
2023-03-15T19:10:30.698Z,63.08
2023-03-15T19:12:58.833Z,62.90
2023-03-15T19:15:27.195Z,51.17
2023-03-15T19:17:55.792Z,54.20
2023-03-15T19:20:24.480Z,77.75
2023-03-15T19:22:53.705Z,96.38
2023-03-15T19:25:22.441Z,83.18
2023-03-15T19:27:50.894Z,78.20
2023-03-15T19:30:20.217Z,64.95
2023-03-15T19:32:49.015Z,93.60
2023-03-15T19:35:18.493Z,52.78
2023-03-15T19:37:48.043Z,57.95
2023-03-15T19:40:17.742Z,52.75
2023-03-15T19:42:47.087Z,48.63
2023-03-15T23:49:50.369Z,55.55
2023-03-15T23:52:23.039Z,61.38
2023-03-15T23:54:52.696Z,48.22
2023-03-15T23:57:21.375Z,41.03
2023-03-15T23:59:49.727Z,45.97
